createdAt,value
2019-05-05T00:00:24.670Z,93.70
2019-05-05T00:01:25.057Z,93.80
2019-05-05T00:03:17.407Z,94.08
2019-05-05T00:04:17.375Z,93.99
2019-05-05T00:06:10.278Z,94.08
2019-05-05T00:07:10.278Z,94.08
2019-05-05T00:09:05.278Z,94.08
2019-05-05T00:10:04.570Z,93.80
2019-05-05T00:11:56.080Z,93.51
2019-05-05T00:12:56.084Z,93.51
2019-05-05T00:14:48.975Z,93.61
2019-05-05T00:15:48.982Z,93.42
2019-05-05T00:17:41.890Z,93.61
2019-05-05T00:18:41.882Z,93.61
2019-05-05T00:20:34.781Z,93.80
2019-05-05T00:21:34.785Z,93.99
2019-05-05T00:23:27.688Z,94.18
2019-05-05T00:24:27.688Z,93.32
2019-05-05T00:26:20.588Z,94.08
2019-05-05T00:27:20.586Z,94.18
2019-05-05T00:29:14.871Z,93.80
2019-05-05T00:30:14.379Z,94.18
2019-05-05T00:32:06.389Z,94.18
2019-05-05T00:33:06.391Z,93.61
2019-05-05T00:34:59.282Z,93.61
2019-05-05T00:35:59.289Z,93.51
2019-05-05T00:37:54.316Z,93.42
2019-05-05T00:38:52.189Z,94.18
2019-05-05T00:40:45.085Z,93.42
2019-05-05T00:41:45.089Z,93.32
2019-05-05T00:43:37.989Z,93.42
2019-05-05T00:44:37.995Z,93.46
2019-05-05T00:46:30.894Z,93.51
2019-05-05T00:47:30.894Z,93.51
2019-05-05T00:49:25.008Z,93.84
2019-05-05T00:50:25.256Z,93.75
2019-05-05T00:52:16.695Z,93.37
2019-05-05T00:53:16.695Z,93.46
2019-05-05T00:55:09.588Z,94.13
2019-05-05T00:56:09.594Z,93.75
2019-05-05T00:58:02.496Z,94.13
2019-05-05T00:59:04.488Z,93.65
2019-05-05T01:00:55.391Z,93.65
2019-05-05T01:01:55.410Z,93.65
2019-05-05T01:03:48.297Z,93.65
2019-05-05T01:04:48.306Z,93.37
2019-05-05T01:06:41.202Z,94.04
2019-05-05T01:07:41.196Z,93.75
2019-05-05T01:09:34.479Z,93.84
2019-05-05T01:10:35.288Z,94.04
2019-05-05T01:12:27.004Z,93.75
2019-05-05T01:13:27.001Z,93.94
2019-05-05T01:15:19.894Z,93.75
2019-05-05T01:16:19.898Z,93.65
2019-05-05T01:18:12.801Z,93.56
2019-05-05T01:19:14.907Z,93.75
2019-05-05T01:21:05.694Z,94.04
2019-05-05T01:22:05.701Z,93.75
2019-05-05T01:23:58.599Z,94.23
2019-05-05T01:24:58.599Z,93.65
2019-05-05T01:26:51.508Z,93.37
2019-05-05T01:27:51.507Z,93.56
2019-05-05T01:29:45.224Z,93.75
2019-05-05T01:30:44.561Z,93.75
2019-05-05T01:32:37.299Z,93.75
2019-05-05T01:33:37.297Z,93.75
2019-05-05T01:35:30.190Z,93.56
2019-05-05T01:36:30.196Z,94.04
2019-05-05T01:38:24.696Z,93.56
2019-05-05T01:39:25.129Z,93.37
2019-05-05T01:41:15.990Z,93.37
2019-05-05T01:42:15.996Z,93.46
2019-05-05T01:44:08.893Z,94.04
2019-05-05T01:45:08.895Z,94.04
2019-05-05T01:47:01.791Z,93.18
2019-05-05T01:48:01.795Z,93.27
2019-05-05T01:49:54.697Z,93.37
2019-05-05T01:50:54.699Z,93.37
2019-05-05T01:52:47.606Z,93.27
2019-05-05T01:53:47.597Z,93.56
2019-05-05T01:55:40.493Z,93.27
2019-05-05T01:56:40.500Z,93.08
2019-05-05T01:58:34.878Z,93.18
2019-05-05T01:59:35.384Z,92.90
2019-05-05T02:01:26.292Z,92.80
2019-05-05T02:02:26.300Z,92.71
2019-05-05T02:04:19.198Z,92.80
2019-05-05T02:05:19.197Z,93.18
2019-05-05T02:07:14.214Z,92.90
2019-05-05T02:08:12.095Z,93.18
2019-05-05T02:10:06.051Z,93.18
2019-05-05T02:11:05.345Z,93.18
2019-05-05T02:12:57.900Z,92.80
2019-05-05T02:13:57.897Z,92.71
2019-05-05T02:15:50.788Z,93.46
2019-05-05T02:16:50.795Z,93.56
2019-05-05T02:18:45.037Z,93.27
2019-05-05T02:19:44.376Z,93.27
2019-05-05T02:21:36.594Z,93.18
2019-05-05T02:22:36.600Z,94.04
2019-05-05T02:24:29.498Z,93.75
2019-05-05T02:25:29.497Z,93.56
2019-05-05T02:27:22.392Z,93.37
2019-05-05T02:28:24.122Z,93.37
2019-05-05T02:30:16.137Z,93.37
2019-05-05T02:31:16.657Z,93.75
2019-05-05T02:33:08.192Z,93.37
2019-05-05T02:34:08.209Z,93.75
2019-05-05T02:36:01.083Z,93.84
2019-05-05T02:37:01.094Z,93.94
2019-05-05T02:38:56.764Z,94.13
2019-05-05T02:40:01.425Z,94.04
2019-05-05T02:41:46.881Z,94.04
2019-05-05T02:42:46.887Z,94.04
2019-05-05T02:44:39.787Z,94.32
2019-05-05T02:45:39.789Z,93.94
2019-05-05T02:47:34.884Z,94.13
2019-05-05T02:48:35.261Z,94.23
2019-05-05T02:50:25.611Z,94.23
2019-05-05T02:51:25.978Z,93.94
2019-05-05T02:53:18.486Z,94.13
2019-05-05T02:54:18.483Z,93.65
2019-05-05T02:56:11.419Z,93.65
2019-05-05T02:57:13.412Z,94.04
2019-05-05T02:59:04.411Z,94.23
2019-05-05T03:00:04.551Z,94.04
2019-05-05T03:01:57.670Z,93.56
2019-05-05T03:02:57.684Z,93.94
2019-05-05T03:04:50.576Z,93.65
2019-05-05T03:05:50.588Z,93.65
2019-05-05T03:07:43.815Z,93.46
2019-05-05T03:08:44.021Z,93.99
2019-05-05T03:10:36.386Z,93.84
2019-05-05T03:11:36.382Z,93.37
2019-05-05T03:13:29.271Z,93.65
2019-05-05T03:14:29.270Z,93.32
2019-05-05T03:16:23.759Z,93.46
2019-05-05T03:17:23.469Z,93.94
2019-05-05T03:19:15.076Z,93.42
2019-05-05T03:20:15.073Z,94.27
2019-05-05T03:22:08.463Z,93.89
2019-05-05T03:23:08.468Z,93.56
2019-05-05T03:25:01.369Z,93.99
2019-05-05T03:26:01.367Z,93.65
2019-05-05T03:27:54.262Z,94.13
2019-05-05T03:28:54.493Z,93.89
2019-05-05T03:30:47.166Z,94.08
2019-05-05T03:31:47.173Z,93.94
2019-05-05T03:33:40.066Z,94.23
2019-05-05T03:34:40.062Z,94.08
2019-05-05T03:36:33.923Z,94.08
2019-05-05T03:37:34.389Z,94.13
2019-05-05T03:39:25.881Z,94.13
2019-05-05T03:40:25.877Z,93.94
2019-05-05T03:42:18.773Z,93.84
2019-05-05T03:43:18.777Z,94.23
2019-05-05T03:45:11.678Z,94.04
2019-05-05T03:46:13.531Z,94.04
2019-05-05T03:48:04.723Z,94.32
2019-05-05T03:49:04.893Z,93.94
2019-05-05T03:50:57.475Z,94.13
2019-05-05T03:51:57.473Z,93.37
2019-05-05T03:53:50.375Z,93.65
2019-05-05T03:54:50.374Z,93.61
2019-05-05T03:56:44.199Z,93.99
2019-05-05T03:57:44.456Z,93.99
2019-05-05T03:59:36.169Z,93.94
2019-05-05T04:00:36.170Z,94.04
2019-05-05T04:02:29.139Z,94.18
2019-05-05T04:03:29.074Z,94.13
2019-05-05T04:05:23.541Z,93.89
2019-05-05T04:06:23.527Z,94.04
2019-05-05T04:08:14.942Z,94.13
2019-05-05T04:09:14.876Z,94.32
2019-05-05T04:11:07.769Z,93.94
2019-05-05T04:12:07.769Z,94.23
2019-05-05T04:14:00.665Z,94.23
2019-05-05T04:15:00.666Z,94.70
2019-05-05T04:16:53.997Z,94.51
2019-05-05T04:17:53.721Z,94.60
2019-05-05T04:19:46.472Z,95.36
2019-05-05T04:20:46.464Z,95.26
2019-05-05T04:22:39.358Z,95.50
2019-05-05T04:23:39.367Z,95.88
2019-05-05T04:25:32.266Z,96.45
2019-05-05T04:26:33.518Z,96.73
2019-05-05T04:28:25.162Z,96.97
2019-05-05T04:29:25.166Z,97.26
2019-05-05T04:31:18.076Z,96.26
2019-05-05T04:32:18.067Z,96.17
2019-05-05T04:34:10.981Z,95.84
2019-05-05T04:35:10.973Z,95.84
2019-05-05T04:37:04.269Z,93.65
2019-05-05T04:38:04.731Z,91.89
2019-05-05T04:39:56.777Z,89.90
2019-05-05T04:40:56.776Z,88.29
2019-05-05T04:42:49.674Z,86.24
2019-05-05T04:43:49.680Z,85.11
2019-05-05T04:45:43.584Z,84.10
2019-05-05T04:46:44.183Z,83.34
2019-05-05T04:48:35.557Z,81.35
2019-05-05T04:49:35.487Z,79.54
2019-05-05T04:51:28.389Z,77.11
2019-05-05T04:52:28.393Z,75.78
2019-05-05T04:54:21.301Z,74.12
2019-05-05T04:55:21.299Z,74.12
2019-05-05T04:57:14.984Z,73.74
2019-05-05T04:58:14.206Z,74.22
2019-05-05T05:00:07.110Z,74.37
2019-05-05T05:01:07.115Z,73.99
2019-05-05T05:03:00.012Z,74.94
2019-05-05T05:04:00.021Z,75.19
2019-05-05T05:05:53.642Z,76.32
2019-05-05T05:06:54.202Z,76.52
2019-05-05T05:08:45.847Z,77.90
2019-05-05T05:09:45.833Z,78.47
2019-05-05T05:11:38.737Z,79.52
2019-05-05T05:12:38.738Z,80.18
2019-05-05T05:14:33.559Z,80.84
2019-05-05T05:15:31.644Z,81.51
2019-05-05T05:17:25.021Z,82.13
2019-05-05T05:18:24.550Z,82.60
2019-05-05T05:20:17.460Z,83.40
2019-05-05T05:21:17.455Z,83.22
2019-05-05T05:23:10.351Z,83.31
2019-05-05T05:24:10.360Z,82.84
2019-05-05T05:26:05.041Z,83.31
2019-05-05T05:27:05.009Z,83.40
2019-05-05T05:28:56.163Z,83.31
2019-05-05T05:29:56.167Z,83.22
2019-05-05T05:31:49.092Z,83.59
2019-05-05T05:32:49.073Z,83.78
2019-05-05T05:34:43.688Z,83.97
2019-05-05T05:35:43.999Z,84.17
2019-05-05T05:37:34.881Z,84.83
2019-05-05T05:38:34.889Z,84.64
2019-05-05T05:40:27.795Z,84.36
2019-05-05T05:41:27.797Z,84.45
2019-05-05T05:43:20.695Z,85.02
2019-05-05T05:44:20.703Z,84.92
2019-05-05T05:46:13.694Z,85.06
2019-05-05T05:47:14.159Z,84.97
2019-05-05T05:49:06.505Z,84.30
2019-05-05T05:50:06.514Z,84.21
2019-05-05T05:52:12.354Z,84.78
2019-05-05T05:52:59.418Z,84.59
2019-05-05T05:54:53.513Z,84.40
2019-05-05T05:55:53.804Z,84.49
2019-05-05T05:57:45.232Z,84.21
2019-05-05T05:58:45.234Z,84.49
2019-05-05T06:00:38.140Z,86.15
2019-05-05T06:01:38.141Z,86.95
2019-05-05T06:03:31.047Z,85.24
2019-05-05T06:04:31.058Z,81.86
2019-05-05T06:06:24.155Z,79.43
2019-05-05T06:07:24.554Z,78.96
2019-05-05T06:09:16.869Z,76.75
2019-05-05T06:10:24.205Z,75.89
2019-05-05T06:12:09.791Z,73.65
2019-05-05T06:13:09.794Z,71.77
2019-05-05T06:15:03.854Z,68.95
2019-05-05T06:16:04.224Z,66.63
2019-05-05T06:17:55.696Z,66.09
2019-05-05T06:18:55.631Z,65.86
2019-05-05T06:20:48.549Z,67.42
2019-05-05T06:21:48.551Z,67.61
2019-05-05T06:23:43.538Z,67.52
2019-05-05T06:24:43.748Z,68.38
2019-05-05T06:26:34.581Z,67.55
2019-05-05T06:27:34.442Z,66.31
2019-05-05T06:29:27.302Z,64.15
2019-05-05T06:30:27.316Z,62.52
2019-05-05T06:32:20.233Z,62.46
2019-05-05T06:33:20.240Z,62.24
2019-05-05T06:35:13.847Z,62.21
2019-05-05T06:36:14.149Z,63.23
2019-05-05T06:38:06.088Z,65.96
2019-05-05T06:39:06.098Z,66.15
2019-05-05T06:40:59.103Z,68.59
2019-05-05T06:41:59.110Z,69.07
2019-05-05T06:43:52.021Z,70.40
2019-05-05T06:44:53.535Z,70.59
2019-05-05T06:46:44.948Z,71.70
2019-05-05T06:47:44.953Z,71.03
2019-05-05T06:49:37.908Z,72.42
2019-05-05T06:50:37.920Z,73.10
2019-05-05T06:52:41.988Z,73.82
2019-05-05T06:53:30.835Z,74.77
2019-05-05T06:55:24.507Z,75.91
2019-05-05T06:56:23.881Z,75.91
2019-05-05T06:58:16.661Z,76.57
2019-05-05T06:59:16.665Z,77.05
2019-05-05T07:01:09.577Z,77.91
2019-05-05T07:02:09.627Z,78.10
2019-05-05T07:04:03.473Z,77.81
2019-05-05T07:05:04.100Z,77.91
2019-05-05T07:06:57.131Z,77.68
2019-05-05T07:07:55.411Z,77.77
2019-05-05T07:09:48.318Z,79.58
2019-05-05T07:10:48.322Z,79.68
2019-05-05T07:12:41.230Z,80.15
2019-05-05T07:13:41.233Z,80.34
2019-05-05T07:15:34.339Z,80.68
2019-05-05T07:16:34.571Z,81.63
2019-05-05T07:18:27.054Z,82.01
2019-05-05T07:19:27.060Z,82.77
2019-05-05T07:21:19.965Z,83.87
2019-05-05T07:22:19.965Z,84.34
2019-05-05T07:24:14.514Z,84.53
2019-05-05T07:25:13.739Z,85.30
2019-05-05T07:27:05.783Z,85.05
2019-05-05T07:28:05.786Z,85.24
2019-05-05T07:29:58.692Z,84.58
2019-05-05T07:30:58.710Z,84.48
2019-05-05T07:32:53.612Z,84.01
2019-05-05T07:33:51.609Z,84.01
2019-05-05T07:35:55.401Z,83.53
2019-05-05T07:36:44.588Z,82.81
2019-05-05T07:38:37.475Z,81.54
2019-05-05T07:39:37.432Z,81.96
2019-05-05T07:41:30.348Z,82.43
2019-05-05T07:42:30.341Z,83.29
2019-05-05T07:44:29.049Z,82.00
2019-05-05T07:45:25.746Z,81.62
2019-05-05T07:47:16.167Z,79.52
2019-05-05T07:48:16.168Z,79.14
2019-05-05T07:50:24.708Z,78.67
2019-05-05T07:51:09.081Z,78.10
2019-05-05T07:53:12.396Z,78.71
2019-05-05T07:54:03.830Z,78.71
2019-05-05T07:55:54.904Z,76.14
2019-05-05T07:56:54.908Z,75.47
2019-05-05T07:58:47.819Z,76.04
2019-05-05T07:59:47.824Z,76.52
2019-05-05T08:01:43.558Z,75.76
2019-05-05T08:02:40.738Z,76.04
2019-05-05T08:04:34.647Z,75.09
2019-05-05T08:05:33.695Z,75.09
2019-05-05T08:07:26.574Z,75.70
2019-05-05T08:08:26.578Z,75.23
2019-05-05T08:10:19.508Z,75.32
2019-05-05T08:11:19.520Z,73.89
2019-05-05T08:13:14.117Z,72.94
2019-05-05T08:14:14.503Z,73.26
2019-05-05T08:16:05.351Z,73.55
2019-05-05T08:17:05.354Z,73.83
2019-05-05T08:18:58.270Z,73.68
2019-05-05T08:19:58.281Z,72.53
2019-05-05T08:21:51.189Z,70.82
2019-05-05T08:22:51.218Z,70.40
2019-05-05T08:24:44.099Z,71.96
2019-05-05T08:25:45.435Z,71.01
2019-05-05T08:27:37.068Z,70.92
2019-05-05T08:28:37.039Z,70.06
2019-05-05T08:30:29.946Z,70.25
2019-05-05T08:31:29.958Z,70.82
2019-05-05T08:33:24.136Z,70.72
2019-05-05T08:34:24.488Z,70.34
2019-05-05T08:36:15.792Z,70.06
2019-05-05T08:37:15.795Z,70.72
2019-05-05T08:39:08.707Z,71.45
2019-05-05T08:40:08.714Z,70.88
2019-05-05T08:42:04.111Z,71.73
2019-05-05T08:43:01.631Z,71.55
2019-05-05T08:44:54.538Z,71.07
2019-05-05T08:45:55.361Z,71.48
2019-05-05T08:47:47.479Z,71.30
2019-05-05T08:48:47.483Z,72.16
2019-05-05T08:50:40.410Z,70.44
2019-05-05T08:51:40.402Z,70.53
2019-05-05T08:53:44.019Z,71.68
2019-05-05T08:54:34.338Z,73.21
2019-05-05T08:56:26.229Z,72.96
2019-05-05T08:57:26.241Z,70.09
2019-05-05T08:59:19.167Z,70.38
2019-05-05T09:00:19.158Z,70.95
2019-05-05T09:02:12.079Z,70.61
2019-05-05T09:03:13.846Z,69.93
2019-05-05T09:05:04.984Z,70.54
2019-05-05T09:06:05.003Z,69.97
2019-05-05T09:07:57.917Z,68.29
2019-05-05T09:08:57.939Z,65.90
2019-05-05T09:10:53.079Z,64.09
2019-05-05T09:11:50.846Z,64.85
2019-05-05T09:13:44.654Z,66.22
2019-05-05T09:14:44.885Z,65.45
2019-05-05T09:16:36.723Z,65.07
2019-05-05T09:17:36.692Z,65.26
2019-05-05T09:19:29.624Z,65.45
2019-05-05T09:20:29.615Z,65.55
2019-05-05T09:22:24.484Z,63.64
2019-05-05T09:23:23.984Z,62.49
2019-05-05T09:25:15.450Z,60.96
2019-05-05T09:26:15.459Z,59.44
2019-05-05T09:28:08.373Z,59.81
2019-05-05T09:29:08.383Z,60.07
2019-05-05T09:31:01.301Z,61.69
2019-05-05T09:32:01.301Z,62.05
2019-05-05T09:33:54.216Z,63.00
2019-05-05T09:34:54.221Z,63.67
2019-05-05T09:36:47.162Z,64.81
2019-05-05T09:37:47.143Z,64.91
2019-05-05T09:39:40.057Z,64.91
2019-05-05T09:40:40.063Z,64.40
2019-05-05T09:42:34.188Z,64.56
2019-05-05T09:43:34.513Z,65.33
2019-05-05T09:45:25.897Z,66.47
2019-05-05T09:46:25.903Z,66.91
2019-05-05T09:48:18.818Z,68.34
2019-05-05T09:49:18.823Z,69.77
2019-05-05T09:51:13.566Z,70.34
2019-05-05T09:52:13.843Z,70.53
2019-05-05T09:54:13.926Z,72.16
2019-05-05T09:55:04.656Z,72.41
2019-05-05T09:56:57.566Z,72.88
2019-05-05T09:57:57.575Z,72.50
2019-05-05T09:59:50.551Z,73.55
2019-05-05T10:00:50.554Z,72.69
2019-05-05T10:02:44.151Z,69.54
2019-05-05T10:03:44.710Z,68.21
2019-05-05T10:05:36.451Z,67.55
2019-05-05T10:06:36.397Z,66.75
2019-05-05T10:08:29.316Z,69.26
2019-05-05T10:09:29.317Z,69.45
2019-05-05T10:11:23.871Z,69.54
2019-05-05T10:12:22.238Z,69.07
2019-05-05T10:14:15.167Z,68.12
2019-05-05T10:15:15.159Z,67.83
2019-05-05T10:17:08.070Z,67.74
2019-05-05T10:18:08.079Z,66.97
2019-05-05T10:20:00.995Z,68.53
2019-05-05T10:21:01.005Z,68.24
2019-05-05T10:22:54.341Z,66.28
2019-05-05T10:23:54.093Z,65.42
2019-05-05T10:25:46.832Z,64.75
2019-05-05T10:26:46.839Z,65.89
2019-05-05T10:28:39.752Z,66.53
2019-05-05T10:29:39.755Z,67.00
2019-05-05T10:31:34.499Z,65.86
2019-05-05T10:32:32.674Z,65.67
2019-05-05T10:34:25.588Z,65.96
2019-05-05T10:35:25.591Z,66.44
2019-05-05T10:37:18.498Z,65.77
2019-05-05T10:38:18.509Z,65.00
2019-05-05T10:40:11.424Z,64.91
2019-05-05T10:41:13.434Z,63.86
2019-05-05T10:43:04.648Z,62.84
2019-05-05T10:44:04.345Z,62.08
2019-05-05T10:45:57.302Z,62.94
2019-05-05T10:46:57.267Z,63.13
2019-05-05T10:48:50.237Z,62.75
2019-05-05T10:49:50.206Z,60.87
2019-05-05T10:51:43.958Z,59.73
2019-05-05T10:52:44.304Z,60.02
2019-05-05T10:54:43.998Z,60.87
2019-05-05T10:55:36.044Z,62.02
2019-05-05T10:57:28.954Z,60.21
2019-05-05T10:58:28.963Z,60.61
2019-05-05T11:00:21.891Z,60.11
2019-05-05T11:01:23.627Z,59.66
2019-05-05T11:03:15.241Z,59.63
2019-05-05T11:04:14.806Z,59.63
2019-05-05T11:06:07.721Z,58.58
2019-05-05T11:07:07.727Z,58.99
2019-05-05T11:09:00.645Z,59.09
2019-05-05T11:10:00.649Z,59.47
2019-05-05T11:11:53.564Z,59.28
2019-05-05T11:12:53.588Z,59.38
2019-05-05T11:14:46.493Z,60.71
2019-05-05T11:15:46.502Z,61.47
2019-05-05T11:17:39.454Z,59.47
2019-05-05T11:18:39.452Z,60.42
2019-05-05T11:20:34.075Z,59.09
2019-05-05T11:21:34.127Z,58.61
2019-05-05T11:23:25.260Z,58.70
2019-05-05T11:24:25.270Z,59.47
2019-05-05T11:26:18.184Z,58.80
2019-05-05T11:27:18.190Z,59.09
2019-05-05T11:29:11.107Z,59.22
2019-05-05T11:30:11.114Z,59.02
2019-05-05T11:32:04.024Z,58.83
2019-05-05T11:33:04.155Z,57.43
2019-05-05T11:34:56.954Z,55.11
2019-05-05T11:35:56.961Z,56.54
2019-05-05T11:37:49.873Z,56.18
2019-05-05T11:38:49.888Z,54.06
2019-05-05T11:40:43.947Z,54.25
2019-05-05T11:41:44.021Z,54.44
2019-05-05T11:43:35.715Z,55.40
2019-05-05T11:44:35.732Z,55.40
2019-05-05T11:46:28.647Z,54.06
2019-05-05T11:47:28.655Z,53.49
2019-05-05T11:49:21.572Z,54.27
2019-05-05T11:50:23.755Z,54.66
2019-05-05T11:52:14.505Z,52.72
2019-05-05T11:53:14.681Z,53.20
2019-05-05T11:55:11.493Z,54.70
2019-05-05T11:56:07.424Z,55.30
2019-05-05T11:58:00.844Z,57.28
2019-05-05T11:59:00.350Z,57.56
2019-05-05T12:00:54.467Z,58.04
2019-05-05T12:01:54.960Z,57.92
2019-05-05T12:03:46.179Z,58.77
2019-05-05T12:04:46.192Z,59.06
2019-05-05T12:06:39.108Z,59.44
2019-05-05T12:07:39.113Z,59.44
2019-05-05T12:09:33.433Z,59.53
2019-05-05T12:10:34.351Z,59.56
2019-05-05T12:12:24.942Z,60.24
2019-05-05T12:13:24.955Z,59.66
2019-05-05T12:15:17.950Z,58.51
2019-05-05T12:16:17.872Z,57.46
2019-05-05T12:18:10.907Z,57.56
2019-05-05T12:19:10.822Z,57.87
2019-05-05T12:21:05.190Z,56.25
2019-05-05T12:22:03.713Z,54.15
2019-05-05T12:23:56.619Z,54.72
2019-05-05T12:24:56.634Z,55.96
2019-05-05T12:26:49.545Z,55.49
2019-05-05T12:27:49.552Z,53.86
2019-05-05T12:29:44.169Z,55.32
2019-05-05T12:30:44.383Z,55.80
2019-05-05T12:32:35.380Z,53.51
2019-05-05T12:33:35.392Z,50.74
2019-05-05T12:35:28.378Z,50.16
2019-05-05T12:36:28.314Z,49.59
2019-05-05T12:38:21.292Z,49.98
2019-05-05T12:39:21.236Z,49.98
2019-05-05T12:41:14.765Z,48.83
2019-05-05T12:42:14.360Z,48.16
2019-05-05T12:44:07.069Z,50.16
2019-05-05T12:45:07.087Z,49.40
2019-05-05T12:47:00.011Z,47.20
2019-05-05T12:48:00.139Z,48.07
2019-05-05T12:49:54.515Z,47.99
2019-05-05T12:50:53.582Z,47.71
2019-05-05T12:52:45.966Z,47.99
2019-05-05T12:53:45.977Z,48.18
2019-05-05T12:55:41.728Z,46.46
2019-05-05T12:56:38.903Z,46.46
2019-05-05T12:58:33.569Z,48.09
2019-05-05T12:59:33.743Z,47.87
2019-05-05T13:01:24.828Z,48.54
2019-05-05T13:02:24.787Z,48.64
2019-05-05T13:04:17.694Z,49.21
2019-05-05T13:05:17.709Z,50.16
2019-05-05T13:07:10.626Z,50.16
2019-05-05T13:08:10.643Z,49.69
2019-05-05T13:10:04.810Z,49.21
2019-05-05T13:11:04.107Z,49.59
2019-05-05T13:12:56.470Z,49.30
2019-05-05T13:13:56.483Z,50.16
2019-05-05T13:15:49.399Z,50.16
2019-05-05T13:16:53.004Z,50.09
2019-05-05T13:18:42.327Z,49.43
2019-05-05T13:19:43.726Z,49.33
2019-05-05T13:21:35.631Z,49.23
2019-05-05T13:22:35.577Z,47.99
2019-05-05T13:24:28.558Z,48.47
2019-05-05T13:25:28.547Z,48.38
2019-05-05T13:27:21.459Z,46.56
2019-05-05T13:28:21.459Z,45.12
2019-05-05T13:30:14.370Z,45.72
2019-05-05T13:31:14.378Z,45.24
2019-05-05T13:33:07.315Z,45.72
2019-05-05T13:34:07.301Z,46.10
2019-05-05T13:36:00.280Z,46.10
2019-05-05T13:37:00.257Z,46.58
2019-05-05T13:38:54.574Z,46.10
2019-05-05T13:39:53.859Z,46.30
2019-05-05T13:41:46.075Z,46.30
2019-05-05T13:42:46.082Z,46.70
2019-05-05T13:44:39.058Z,45.65
2019-05-05T13:45:39.066Z,44.50
2019-05-05T13:47:34.245Z,44.79
2019-05-05T13:48:33.353Z,44.21
2019-05-05T13:50:24.957Z,44.21
2019-05-05T13:51:24.904Z,44.59
2019-05-05T13:53:17.815Z,45.26
2019-05-05T13:54:17.828Z,44.12
2019-05-05T13:56:12.468Z,44.79
2019-05-05T13:57:10.772Z,43.90
2019-05-05T13:59:03.676Z,44.95
2019-05-05T14:00:03.851Z,45.81
2019-05-05T14:01:56.618Z,44.98
2019-05-05T14:02:56.624Z,44.67
2019-05-05T14:04:49.533Z,45.43
2019-05-05T14:05:49.549Z,45.34
2019-05-05T14:07:43.616Z,45.36
2019-05-05T14:08:44.621Z,44.69
2019-05-05T14:10:35.394Z,46.22
2019-05-05T14:11:35.403Z,46.12
2019-05-05T14:13:28.316Z,46.48
2019-05-05T14:14:28.332Z,45.72
2019-05-05T14:16:21.253Z,46.39
2019-05-05T14:17:21.256Z,46.84
2019-05-05T14:19:14.744Z,48.85
2019-05-05T14:20:14.828Z,49.69
2019-05-05T14:22:07.099Z,53.03
2019-05-05T14:23:07.106Z,53.80
2019-05-05T14:25:00.019Z,54.34
2019-05-05T14:26:00.032Z,54.72
2019-05-05T14:27:54.128Z,54.03
2019-05-05T14:28:53.648Z,54.50
2019-05-05T14:30:45.869Z,54.41
2019-05-05T14:31:45.874Z,55.46
2019-05-05T14:33:38.785Z,55.65
2019-05-05T14:34:38.797Z,55.84
2019-05-05T14:36:33.413Z,55.11
2019-05-05T14:37:33.863Z,55.01
2019-05-05T14:39:24.642Z,53.67
2019-05-05T14:40:24.639Z,54.25
2019-05-05T14:42:17.553Z,51.95
2019-05-05T14:43:17.562Z,51.67
2019-05-05T14:45:10.474Z,52.81
2019-05-05T14:46:10.487Z,52.72
2019-05-05T14:48:03.952Z,53.10
2019-05-05T14:49:05.609Z,53.58
2019-05-05T14:50:56.343Z,54.82
2019-05-05T14:51:56.333Z,55.68
2019-05-05T14:53:49.309Z,57.94
2019-05-05T14:54:49.289Z,58.51
2019-05-05T14:56:44.043Z,58.80
2019-05-05T14:57:43.981Z,59.19
2019-05-05T14:59:37.044Z,58.90
2019-05-05T15:00:35.097Z,58.16
2019-05-05T15:02:28.011Z,57.21
2019-05-05T15:03:28.016Z,56.63
2019-05-05T15:05:20.928Z,57.40
2019-05-05T15:06:20.940Z,56.47
2019-05-05T15:08:13.858Z,55.52
2019-05-05T15:09:14.016Z,54.47
2019-05-05T15:11:06.839Z,55.71
2019-05-05T15:12:06.788Z,55.71
2019-05-05T15:13:59.699Z,55.99
2019-05-05T15:14:59.712Z,55.71
2019-05-05T15:16:54.284Z,54.47
2019-05-05T15:17:53.658Z,53.70
2019-05-05T15:19:45.550Z,52.94
2019-05-05T15:20:45.566Z,51.50
2019-05-05T15:22:38.478Z,51.05
2019-05-05T15:23:38.488Z,52.48
2019-05-05T15:25:31.395Z,52.77
2019-05-05T15:26:31.410Z,52.58
2019-05-05T15:28:24.685Z,51.72
2019-05-05T15:29:25.248Z,51.91
2019-05-05T15:31:17.877Z,51.72
2019-05-05T15:32:17.257Z,50.76
2019-05-05T15:34:10.175Z,49.11
2019-05-05T15:35:10.182Z,48.93
2019-05-05T15:37:03.909Z,49.11
2019-05-05T15:38:04.462Z,49.38
2019-05-05T15:39:56.015Z,50.14
2019-05-05T15:40:56.030Z,49.76
2019-05-05T15:42:49.120Z,50.33
2019-05-05T15:43:49.099Z,50.62
2019-05-05T15:45:43.356Z,51.38
2019-05-05T15:46:44.070Z,51.48
2019-05-05T15:48:34.942Z,50.45
2019-05-05T15:49:34.948Z,49.98
2019-05-05T15:51:27.863Z,49.59
2019-05-05T15:52:27.873Z,49.47
2019-05-05T15:54:20.785Z,48.61
2019-05-05T15:55:20.795Z,49.28
2019-05-05T15:57:14.909Z,50.24
2019-05-05T15:58:14.147Z,49.95
2019-05-05T16:00:07.639Z,50.52
2019-05-05T16:01:07.639Z,51.09
2019-05-05T16:03:00.551Z,50.55
2019-05-05T16:04:00.560Z,48.99
2019-05-05T16:05:54.277Z,49.09
2019-05-05T16:06:54.053Z,49.57
2019-05-05T16:08:46.389Z,50.26
2019-05-05T16:09:46.712Z,50.62
2019-05-05T16:11:39.303Z,50.24
2019-05-05T16:12:39.694Z,48.71
2019-05-05T16:14:32.231Z,48.52
2019-05-05T16:15:32.238Z,49.09
2019-05-05T16:17:25.150Z,49.85
2019-05-05T16:18:25.158Z,49.66
2019-05-05T16:20:18.073Z,48.23
2019-05-05T16:21:18.075Z,48.42
2019-05-05T16:23:10.988Z,48.80
2019-05-05T16:24:10.997Z,48.90
2019-05-05T16:26:03.911Z,47.94
2019-05-05T16:27:17.760Z,48.04
2019-05-05T16:28:56.843Z,48.61
2019-05-05T16:29:56.850Z,47.85
2019-05-05T16:31:49.760Z,47.56
2019-05-05T16:32:49.785Z,46.80
2019-05-05T16:34:42.689Z,46.99
2019-05-05T16:35:43.766Z,46.89
2019-05-05T16:37:35.609Z,46.89
2019-05-05T16:38:35.615Z,46.61
2019-05-05T16:40:28.526Z,47.27
2019-05-05T16:41:28.536Z,47.27
2019-05-05T16:43:21.488Z,46.89
2019-05-05T16:44:23.335Z,46.80
2019-05-05T16:46:17.042Z,47.75
2019-05-05T16:47:15.827Z,48.25
2019-05-05T16:49:07.304Z,46.53
2019-05-05T16:50:07.365Z,46.15
2019-05-05T16:52:00.864Z,46.25
2019-05-05T16:53:00.226Z,46.34
2019-05-05T16:54:53.276Z,46.44
2019-05-05T16:55:53.842Z,47.20
2019-05-05T16:57:46.098Z,48.35
2019-05-05T16:58:46.170Z,48.25
2019-05-05T17:00:39.005Z,46.06
2019-05-05T17:01:39.042Z,46.44
2019-05-05T17:03:31.919Z,47.11
2019-05-05T17:04:31.925Z,45.77
2019-05-05T17:06:24.850Z,44.15
2019-05-05T17:07:24.853Z,44.05
2019-05-05T17:09:17.762Z,43.86
2019-05-05T17:10:17.766Z,43.86
2019-05-05T17:12:10.691Z,43.95
2019-05-05T17:13:10.688Z,44.34
2019-05-05T17:15:04.491Z,45.10
2019-05-05T17:16:04.075Z,44.81
2019-05-05T17:17:56.549Z,44.05
2019-05-05T17:18:56.540Z,43.76
2019-05-05T17:20:49.446Z,43.95
2019-05-05T17:21:49.455Z,43.86
2019-05-05T17:23:43.453Z,44.41
2019-05-05T17:24:44.030Z,43.76
2019-05-05T17:26:35.604Z,44.51
2019-05-05T17:27:47.601Z,44.22
2019-05-05T17:29:28.277Z,44.12
2019-05-05T17:30:28.268Z,44.22
2019-05-05T17:32:21.178Z,44.41
2019-05-05T17:33:21.187Z,44.31
2019-05-05T17:35:14.418Z,43.55
2019-05-05T17:36:14.328Z,44.22
2019-05-05T17:38:07.260Z,43.15
2019-05-05T17:39:07.248Z,43.15
2019-05-05T17:41:00.647Z,43.62
2019-05-05T17:42:00.167Z,43.72
2019-05-05T17:43:54.181Z,44.29
2019-05-05T17:44:53.092Z,43.24
2019-05-05T17:46:45.997Z,43.05
2019-05-05T17:47:46.008Z,43.43
2019-05-05T17:49:38.932Z,43.24
2019-05-05T17:50:38.936Z,42.48
2019-05-05T17:52:31.850Z,42.29
2019-05-05T17:53:31.856Z,42.38
2019-05-05T17:55:27.486Z,42.27
2019-05-05T17:56:24.776Z,42.65
2019-05-05T17:58:17.700Z,42.27
2019-05-05T17:59:17.696Z,41.88
2019-05-05T18:01:10.610Z,42.55
2019-05-05T18:02:10.613Z,42.38
2019-05-05T18:04:04.117Z,42.48
2019-05-05T18:05:04.529Z,41.62
2019-05-05T18:06:56.444Z,41.16
2019-05-05T18:07:56.454Z,41.26
2019-05-05T18:09:49.373Z,42.00
2019-05-05T18:10:49.374Z,42.21
2019-05-05T18:12:44.418Z,42.60
2019-05-05T18:13:43.479Z,42.67
2019-05-05T18:15:35.206Z,43.15
2019-05-05T18:16:35.212Z,43.72
2019-05-05T18:18:28.120Z,44.74
2019-05-05T18:19:28.130Z,44.74
2019-05-05T18:21:21.044Z,46.06
2019-05-05T18:22:21.048Z,46.82
2019-05-05T18:24:13.960Z,48.16
2019-05-05T18:25:14.358Z,48.35
2019-05-05T18:27:06.875Z,49.02
2019-05-05T18:28:18.862Z,48.80
2019-05-05T18:29:59.796Z,49.95
2019-05-05T18:31:01.395Z,50.42
2019-05-05T18:32:53.457Z,51.18